Sea Pearl — V7MQ8 — position and weather

sailwx.info

Track history (hours):
 
Tides and Currents Weather Stations Pressure Air Temp Water Temp Dewpoint Dewpoint Depression Visibility Wind Speed Wind Dir Waves Ship Positions

Sea Pearl

Last reported at 2015-Mar-24 18:33 UTC. Time now 2015-May-05 10:13 UTC.
Position N 27°45' W 082°32'.
Warning: this ship's position is 41 days out of date.

Length 183 m; draft 8.9 m.

Type: Cargo ship. MMSI: 538002888.

Date/timePositionNaut miles runAvg speedWind from/ knotsBaromVisibWave heightAir tempDewpointWater temp
2015-Mar-24 18:33N 27°45' W 082°32'9 9.1
2015-Mar-24 17:33N 27°52' W 082°27'2 2.0
2015-Mar-24 16:32N 27°54' W 082°26'0 0.0
2015-Mar-24 15:32N 27°54' W 082°26'0 0.0
2015-Mar-24 14:29N 27°54' W 082°26'0 0.0
2015-Mar-24 13:29N 27°54' W 082°26'0 0.0
2015-Mar-24 12:29N 27°54' W 082°26'0 0.0
2015-Mar-24 11:32N 27°54' W 082°26'0 0.0
2015-Mar-24 10:29N 27°54' W 082°26'0 0.0
2015-Mar-24 09:32N 27°54' W 082°26'0 0.0
2015-Mar-24 08:32N 27°54' W 082°26'0 0.0
2015-Mar-24 07:32N 27°54' W 082°26'0 0.0
2015-Mar-24 06:32N 27°54' W 082°26'0 0.0
2015-Mar-24 04:23N 27°54' W 082°26'0 0.0
2015-Mar-24 03:26N 27°54' W 082°26'0 0.0
2015-Mar-24 02:32N 27°54' W 082°26'0 0.0
2015-Mar-24 01:29N 27°54' W 082°26'0 0.0
2015-Mar-24 00:32N 27°54' W 082°26'0 0.0
2015-Mar-23 23:32N 27°54' W 082°26'0 0.0
2015-Mar-23 22:32N 27°54' W 082°26'0 0.0
2015-Mar-23 21:32N 27°54' W 082°26'0 0.0
2015-Mar-23 20:32N 27°54' W 082°26'0 0.0
2015-Mar-23 19:32N 27°54' W 082°26'0 0.0
2015-Mar-23 18:32N 27°54' W 082°26'0 0.0
2015-Mar-23 17:32N 27°54' W 082°26'0 0.0
2015-Mar-23 16:32N 27°54' W 082°26'0 0.0
2015-Mar-23 15:32N 27°54' W 082°26'0 0.0
2015-Mar-23 14:32N 27°54' W 082°26'0 0.0
2015-Mar-23 13:29N 27°54' W 082°26'0 0.0
2015-Mar-23 12:32N 27°54' W 082°26'0 0.0
2015-Mar-23 11:29N 27°54' W 082°26'0 0.0
2015-Mar-23 10:32N 27°54' W 082°26'0 0.0
2015-Mar-23 09:32N 27°54' W 082°26'0 0.0
2015-Mar-23 08:29N 27°54' W 082°26'0 0.0
2015-Mar-23 07:32N 27°54' W 082°26'0 0.0
2015-Mar-23 06:32N 27°54' W 082°26'0 0.0
2015-Mar-23 05:29N 27°54' W 082°26'0 0.0
2015-Mar-23 04:32N 27°54' W 082°26'0 0.0
2015-Mar-23 03:32N 27°54' W 082°26'0 0.0
2015-Mar-23 02:32N 27°54' W 082°26'0 0.0
2015-Mar-23 01:29N 27°54' W 082°26'0 0.0
2015-Mar-23 00:29N 27°54' W 082°26'0 0.0
2015-Mar-22 23:32N 27°54' W 082°26'0 0.0
2015-Mar-22 22:29N 27°54' W 082°26'0 0.0
2015-Mar-22 21:32N 27°54' W 082°26'0 0.0
2015-Mar-22 20:32N 27°54' W 082°26'0 0.0
2015-Mar-22 19:29N 27°54' W 082°26'0 0.0
2015-Mar-22 18:32N 27°54' W 082°26'0 0.0
2015-Mar-22 17:29N 27°54' W 082°26'0 0.0
2015-Mar-22 16:32N 27°54' W 082°26'0 0.0
2015-Mar-22 15:32N 27°54' W 082°26'0 0.0
2015-Mar-22 14:32N 27°54' W 082°26'0 0.0
2015-Mar-22 13:32N 27°54' W 082°26'0 0.0
2015-Mar-22 12:32N 27°54' W 082°26'0 0.0
2015-Mar-22 11:32N 27°54' W 082°26'0 0.0
2015-Mar-22 10:29N 27°54' W 082°26'0 0.0
2015-Mar-22 09:32N 27°54' W 082°26'0 0.0
2015-Mar-22 08:32N 27°54' W 082°26'0 0.0
2015-Mar-22 07:32N 27°54' W 082°26'0 0.0
2015-Mar-22 06:32N 27°54' W 082°26'0 0.0
2015-Mar-22 05:32N 27°54' W 082°26'0 0.0
2015-Mar-22 04:32N 27°54' W 082°26'0 0.0
2015-Mar-22 03:29N 27°54' W 082°26'0 0.0
2015-Mar-22 02:32N 27°54' W 082°26'0 0.0
2015-Mar-22 01:32N 27°54' W 082°26'0 0.0
2015-Mar-22 00:32N 27°54' W 082°26'0 0.0
2015-Mar-21 23:32N 27°54' W 082°26'0 0.0
2015-Mar-21 22:32N 27°54' W 082°26'0 0.0
2015-Mar-21 21:32N 27°54' W 082°26'0 0.0
2015-Mar-21 20:32N 27°54' W 082°26'0 0.0
2015-Mar-21 19:32N 27°54' W 082°26'0 0.0
2015-Mar-21 18:29N 27°54' W 082°26'2 2.2
2015-Mar-21 17:34N 27°52' W 082°27'1111.1
2015-Mar-21 16:33N 27°43' W 082°33'24 3.0
2015-Mar-21 08:32N 27°38' W 082°59'0 0.1
2015-Mar-21 06:25N 27°37' W 082°59'8 9.2
2015-Mar-21 05:33N 27°36' W 083°08'1111.0
2015-Mar-21 04:33N 27°35' W 083°21'1312.7
2015-Mar-21 03:33N 27°36' W 083°35'1312.8
2015-Mar-21 02:33N 27°36' W 083°49'1312.9
2015-Mar-21 01:33N 27°36' W 084°04'1712.8
2015-Mar-21 00:14N 27°36' W 084°23'  
Track history (hours):
 
Tides and Currents Weather Stations Pressure Air Temp Water Temp Dewpoint Dewpoint Depression Visibility Wind Speed Wind Dir Waves Ship Positions

Sea Pearl

Last reported at 2015-Mar-24 18:33 UTC. Time now 2015-May-05 10:13 UTC.
Position N 27°45' W 082°32'.
Warning: this ship's position is 41 days out of date.

Length 183 m; draft 8.9 m.

Type: Cargo ship. MMSI: 538002888.

Date/timePositionNaut miles runAvg speedWind from/ knotsBaromVisibWave heightAir tempDewpointWater temp
2015-Mar-24 18:33N 27°45' W 082°32'9 9.1
2015-Mar-24 17:33N 27°52' W 082°27'2 2.0
2015-Mar-24 16:32N 27°54' W 082°26'0 0.0
2015-Mar-24 15:32N 27°54' W 082°26'0 0.0
2015-Mar-24 14:29N 27°54' W 082°26'0 0.0
2015-Mar-24 13:29N 27°54' W 082°26'0 0.0
2015-Mar-24 12:29N 27°54' W 082°26'0 0.0
2015-Mar-24 11:32N 27°54' W 082°26'0 0.0
2015-Mar-24 10:29N 27°54' W 082°26'0 0.0
2015-Mar-24 09:32N 27°54' W 082°26'0 0.0
2015-Mar-24 08:32N 27°54' W 082°26'0 0.0
2015-Mar-24 07:32N 27°54' W 082°26'0 0.0
2015-Mar-24 06:32N 27°54' W 082°26'0 0.0
2015-Mar-24 04:23N 27°54' W 082°26'0 0.0
2015-Mar-24 03:26N 27°54' W 082°26'0 0.0
2015-Mar-24 02:32N 27°54' W 082°26'0 0.0
2015-Mar-24 01:29N 27°54' W 082°26'0 0.0
2015-Mar-24 00:32N 27°54' W 082°26'0 0.0
2015-Mar-23 23:32N 27°54' W 082°26'0 0.0
2015-Mar-23 22:32N 27°54' W 082°26'0 0.0
2015-Mar-23 21:32N 27°54' W 082°26'0 0.0
2015-Mar-23 20:32N 27°54' W 082°26'0 0.0
2015-Mar-23 19:32N 27°54' W 082°26'0 0.0
2015-Mar-23 18:32N 27°54' W 082°26'0 0.0
2015-Mar-23 17:32N 27°54' W 082°26'0 0.0
2015-Mar-23 16:32N 27°54' W 082°26'0 0.0
2015-Mar-23 15:32N 27°54' W 082°26'0 0.0
2015-Mar-23 14:32N 27°54' W 082°26'0 0.0
2015-Mar-23 13:29N 27°54' W 082°26'0 0.0
2015-Mar-23 12:32N 27°54' W 082°26'0 0.0
2015-Mar-23 11:29N 27°54' W 082°26'0 0.0
2015-Mar-23 10:32N 27°54' W 082°26'0 0.0
2015-Mar-23 09:32N 27°54' W 082°26'0 0.0
2015-Mar-23 08:29N 27°54' W 082°26'0 0.0
2015-Mar-23 07:32N 27°54' W 082°26'0 0.0
2015-Mar-23 06:32N 27°54' W 082°26'0 0.0
2015-Mar-23 05:29N 27°54' W 082°26'0 0.0
2015-Mar-23 04:32N 27°54' W 082°26'0 0.0
2015-Mar-23 03:32N 27°54' W 082°26'0 0.0
2015-Mar-23 02:32N 27°54' W 082°26'0 0.0
2015-Mar-23 01:29N 27°54' W 082°26'0 0.0
2015-Mar-23 00:29N 27°54' W 082°26'0 0.0
2015-Mar-22 23:32N 27°54' W 082°26'0 0.0
2015-Mar-22 22:29N 27°54' W 082°26'0 0.0
2015-Mar-22 21:32N 27°54' W 082°26'0 0.0
2015-Mar-22 20:32N 27°54' W 082°26'0 0.0
2015-Mar-22 19:29N 27°54' W 082°26'0 0.0
2015-Mar-22 18:32N 27°54' W 082°26'0 0.0
2015-Mar-22 17:29N 27°54' W 082°26'0 0.0
2015-Mar-22 16:32N 27°54' W 082°26'0 0.0
2015-Mar-22 15:32N 27°54' W 082°26'0 0.0
2015-Mar-22 14:32N 27°54' W 082°26'0 0.0
2015-Mar-22 13:32N 27°54' W 082°26'0 0.0
2015-Mar-22 12:32N 27°54' W 082°26'0 0.0
2015-Mar-22 11:32N 27°54' W 082°26'0 0.0
2015-Mar-22 10:29N 27°54' W 082°26'0 0.0
2015-Mar-22 09:32N 27°54' W 082°26'0 0.0
2015-Mar-22 08:32N 27°54' W 082°26'0 0.0
2015-Mar-22 07:32N 27°54' W 082°26'0 0.0
2015-Mar-22 06:32N 27°54' W 082°26'0 0.0
2015-Mar-22 05:32N 27°54' W 082°26'0 0.0
2015-Mar-22 04:32N 27°54' W 082°26'0 0.0
2015-Mar-22 03:29N 27°54' W 082°26'0 0.0
2015-Mar-22 02:32N 27°54' W 082°26'0 0.0
2015-Mar-22 01:32N 27°54' W 082°26'0 0.0
2015-Mar-22 00:32N 27°54' W 082°26'0 0.0
2015-Mar-21 23:32N 27°54' W 082°26'0 0.0
2015-Mar-21 22:32N 27°54' W 082°26'0 0.0
2015-Mar-21 21:32N 27°54' W 082°26'0 0.0
2015-Mar-21 20:32N 27°54' W 082°26'0 0.0
2015-Mar-21 19:32N 27°54' W 082°26'0 0.0
2015-Mar-21 18:29N 27°54' W 082°26'2 2.2
2015-Mar-21 17:34N 27°52' W 082°27'1111.1
2015-Mar-21 16:33N 27°43' W 082°33'24 3.0
2015-Mar-21 08:32N 27°38' W 082°59'0 0.1
2015-Mar-21 06:25N 27°37' W 082°59'8 9.2
2015-Mar-21 05:33N 27°36' W 083°08'1111.0
2015-Mar-21 04:33N 27°35' W 083°21'1312.7
2015-Mar-21 03:33N 27°36' W 083°35'1312.8
2015-Mar-21 02:33N 27°36' W 083°49'1312.9
2015-Mar-21 01:33N 27°36' W 084°04'1712.8
2015-Mar-21 00:14N 27°36' W 084°23'  

Dump ship's entire track history